sensor_id;sensor_type;location;lat;lon;timestamp;P1;durP1;ratioP1;P2;durP2;ratioP2
11933;SDS011;6026;48.784;9.198;2023-02-27T00:01:23;0.00;;;0.00;;
11933;SDS011;6026;48.784;9.198;2023-02-27T00:03:48;0.00;;;0.00;;
11933;SDS011;6026;48.784;9.198;2023-02-27T00:06:14;0.00;;;0.00;;
11933;SDS011;6026;48.784;9.198;2023-02-27T00:08:41;0.00;;;0.00;;
11933;SDS011;6026;48.784;9.198;2023-02-27T00:11:07;0.00;;;0.00;;
11933;SDS011;6026;48.784;9.198;2023-02-27T00:13:33;0.00;;;0.00;;
11933;SDS011;6026;48.784;9.198;2023-02-27T00:16:00;0.00;;;0.00;;
11933;SDS011;6026;48.784;9.198;2023-02-27T00:18:25;0.07;;;0.07;;
11933;SDS011;6026;48.784;9.198;2023-02-27T00:20:51;0.00;;;0.00;;
11933;SDS011;6026;48.784;9.198;2023-02-27T00:23:17;0.00;;;0.00;;
11933;SDS011;6026;48.784;9.198;2023-02-27T00:25:43;0.00;;;0.00;;
11933;SDS011;6026;48.784;9.198;2023-02-27T00:28:08;0.00;;;0.00;;
11933;SDS011;6026;48.784;9.198;2023-02-27T00:30:34;0.00;;;0.00;;
11933;SDS011;6026;48.784;9.198;2023-02-27T00:33:00;0.00;;;0.00;;
11933;SDS011;6026;48.784;9.198;2023-02-27T00:35:25;0.00;;;0.00;;
11933;SDS011;6026;48.784;9.198;2023-02-27T00:37:51;0.00;;;0.00;;
11933;SDS011;6026;48.784;9.198;2023-02-27T00:40:16;0.00;;;0.00;;
11933;SDS011;6026;48.784;9.198;2023-02-27T00:42:42;0.20;;;0.20;;
11933;SDS011;6026;48.784;9.198;2023-02-27T00:45:10;0.00;;;0.00;;
11933;SDS011;6026;48.784;9.198;2023-02-27T00:47:36;0.00;;;0.00;;
11933;SDS011;6026;48.784;9.198;2023-02-27T00:50:01;0.00;;;0.00;;
11933;SDS011;6026;48.784;9.198;2023-02-27T00:52:28;0.00;;;0.00;;
11933;SDS011;6026;48.784;9.198;2023-02-27T00:54:54;0.00;;;0.00;;
11933;SDS011;6026;48.784;9.198;2023-02-27T00:57:20;0.00;;;0.00;;
11933;SDS011;6026;48.784;9.198;2023-02-27T00:59:46;0.00;;;0.00;;
11933;SDS011;6026;48.784;9.198;2023-02-27T01:02:12;0.00;;;0.00;;
11933;SDS011;6026;48.784;9.198;2023-02-27T01:04:38;0.00;;;0.00;;
11933;SDS011;6026;48.784;9.198;2023-02-27T01:07:04;0.00;;;0.00;;
11933;SDS011;6026;48.784;9.198;2023-02-27T01:09:29;0.00;;;0.00;;
11933;SDS011;6026;48.784;9.198;2023-02-27T01:11:55;0.00;;;0.00;;
11933;SDS011;6026;48.784;9.198;2023-02-27T01:14:21;0.00;;;0.00;;
11933;SDS011;6026;48.784;9.198;2023-02-27T01:16:47;0.00;;;0.00;;
11933;SDS011;6026;48.784;9.198;2023-02-27T01:19:13;0.00;;;0.00;;
11933;SDS011;6026;48.784;9.198;2023-02-27T01:21:38;0.00;;;0.00;;
11933;SDS011;6026;48.784;9.198;2023-02-27T01:24:06;0.00;;;0.00;;
11933;SDS011;6026;48.784;9.198;2023-02-27T01:26:32;0.00;;;0.00;;
11933;SDS011;6026;48.784;9.198;2023-02-27T01:28:57;0.00;;;0.00;;
11933;SDS011;6026;48.784;9.198;2023-02-27T01:31:23;0.00;;;0.00;;
11933;SDS011;6026;48.784;9.198;2023-02-27T01:33:49;0.00;;;0.00;;
11933;SDS011;6026;48.784;9.198;2023-02-27T01:36:14;0.00;;;0.00;;
11933;SDS011;6026;48.784;9.198;2023-02-27T01:38:40;0.00;;;0.00;;
11933;SDS011;6026;48.784;9.198;2023-02-27T01:41:05;0.00;;;0.00;;
11933;SDS011;6026;48.784;9.198;2023-02-27T01:43:32;0.00;;;0.00;;
11933;SDS011;6026;48.784;9.198;2023-02-27T01:45:58;0.00;;;0.00;;
11933;SDS011;6026;48.784;9.198;2023-02-27T01:48:29;0.00;;;0.00;;
11933;SDS011;6026;48.784;9.198;2023-02-27T01:53:29;0.00;;;0.00;;
11933;SDS011;6026;48.784;9.198;2023-02-27T01:55:57;0.00;;;0.00;;
11933;SDS011;6026;48.784;9.198;2023-02-27T01:58:26;0.10;;;0.10;;
11933;SDS011;6026;48.784;9.198;2023-02-27T02:00:52;0.00;;;0.00;;
11933;SDS011;6026;48.784;9.198;2023-02-27T02:03:21;0.00;;;0.00;;
11933;SDS011;6026;48.784;9.198;2023-02-27T02:05:57;0.00;;;0.00;;
11933;SDS011;6026;48.784;9.198;2023-02-27T02:08:25;0.00;;;0.00;;
11933;SDS011;6026;48.784;9.198;2023-02-27T02:10:52;0.00;;;0.00;;
11933;SDS011;6026;48.784;9.198;2023-02-27T02:13:20;0.00;;;0.00;;
11933;SDS011;6026;48.784;9.198;2023-02-27T02:15:49;0.00;;;0.00;;
11933;SDS011;6026;48.784;9.198;2023-02-27T02:18:35;0.00;;;0.00;;
11933;SDS011;6026;48.784;9.198;2023-02-27T02:27:30;0.00;;;0.00;;
11933;SDS011;6026;48.784;9.198;2023-02-27T02:43:53;0.00;;;0.00;;
11933;SDS011;6026;48.784;9.198;2023-02-27T02:49:34;0.00;;;0.00;;
11933;SDS011;6026;48.784;9.198;2023-02-27T02:52:03;0.00;;;0.00;;
11933;SDS011;6026;48.784;9.198;2023-02-27T02:58:07;0.00;;;0.00;;
11933;SDS011;6026;48.784;9.198;2023-02-27T03:00:05;0.00;;;0.00;;
11933;SDS011;6026;48.784;9.198;2023-02-27T03:05:40;0.00;;;0.00;;
11933;SDS011;6026;48.784;9.198;2023-02-27T03:08:14;0.00;;;0.00;;
11933;SDS011;6026;48.784;9.198;2023-02-27T03:10:56;0.00;;;0.00;;
11933;SDS011;6026;48.784;9.198;2023-02-27T03:13:25;0.00;;;0.00;;
11933;SDS011;6026;48.784;9.198;2023-02-27T03:18:36;0.20;;;0.20;;
11933;SDS011;6026;48.784;9.198;2023-02-27T03:21:09;0.00;;;0.00;;
11933;SDS011;6026;48.784;9.198;2023-02-27T03:23:44;0.00;;;0.00;;
11933;SDS011;6026;48.784;9.198;2023-02-27T03:26:12;0.20;;;0.20;;
11933;SDS011;6026;48.784;9.198;2023-02-27T03:28:47;0.00;;;0.00;;
11933;SDS011;6026;48.784;9.198;2023-02-27T03:31:26;0.00;;;0.00;;
11933;SDS011;6026;48.784;9.198;2023-02-27T03:34:15;0.00;;;0.00;;
11933;SDS011;6026;48.784;9.198;2023-02-27T03:36:58;0.00;;;0.00;;
11933;SDS011;6026;48.784;9.198;2023-02-27T03:42:09;0.00;;;0.00;;
11933;SDS011;6026;48.784;9.198;2023-02-27T03:47:26;0.00;;;0.00;;
11933;SDS011;6026;48.784;9.198;2023-02-27T03:49:53;0.00;;;0.00;;
11933;SDS011;6026;48.784;9.198;2023-02-27T03:52:19;0.00;;;0.00;;
11933;SDS011;6026;48.784;9.198;2023-02-27T03:54:48;0.00;;;0.00;;
11933;SDS011;6026;48.784;9.198;2023-02-27T03:57:18;0.00;;;0.00;;
11933;SDS011;6026;48.784;9.198;2023-02-27T03:59:44;0.00;;;0.00;;
11933;SDS011;6026;48.784;9.198;2023-02-27T04:02:10;0.00;;;0.00;;
11933;SDS011;6026;48.784;9.198;2023-02-27T04:04:36;0.00;;;0.00;;
11933;SDS011;6026;48.784;9.198;2023-02-27T04:15:17;0.00;;;0.00;;
11933;SDS011;6026;48.784;9.198;2023-02-27T04:20:43;0.00;;;0.00;;
11933;SDS011;6026;48.784;9.198;2023-02-27T04:23:29;0.00;;;0.00;;
11933;SDS011;6026;48.784;9.198;2023-02-27T04:28:31;0.00;;;0.00;;
11933;SDS011;6026;48.784;9.198;2023-02-27T04:33:43;0.00;;;0.00;;
11933;SDS011;6026;48.784;9.198;2023-02-27T04:36:39;0.00;;;0.00;;
11933;SDS011;6026;48.784;9.198;2023-02-27T04:39:07;0.00;;;0.00;;
11933;SDS011;6026;48.784;9.198;2023-02-27T04:41:37;0.00;;;0.00;;
11933;SDS011;6026;48.784;9.198;2023-02-27T04:44:15;0.00;;;0.00;;
11933;SDS011;6026;48.784;9.198;2023-02-27T04:46:44;0.00;;;0.00;;
11933;SDS011;6026;48.784;9.198;2023-02-27T04:49:28;0.00;;;0.00;;
11933;SDS011;6026;48.784;9.198;2023-02-27T04:52:10;0.00;;;0.00;;
11933;SDS011;6026;48.784;9.198;2023-02-27T04:54:50;0.00;;;0.00;;
11933;SDS011;6026;48.784;9.198;2023-02-27T04:57:30;0.00;;;0.00;;
11933;SDS011;6026;48.784;9.198;2023-02-27T05:00:01;0.00;;;0.00;;
11933;SDS011;6026;48.784;9.198;2023-02-27T05:02:32;0.00;;;0.00;;
11933;SDS011;6026;48.784;9.198;2023-02-27T05:05:13;0.00;;;0.00;;
11933;SDS011;6026;48.784;9.198;2023-02-27T05:07:48;0.00;;;0.00;;
11933;SDS011;6026;48.784;9.198;2023-02-27T05:10:42;0.00;;;0.00;;
11933;SDS011;6026;48.784;9.198;2023-02-27T05:13:16;0.00;;;0.00;;
11933;SDS011;6026;48.784;9.198;2023-02-27T05:15:51;0.00;;;0.00;;
11933;SDS011;6026;48.784;9.198;2023-02-27T05:18:22;0.00;;;0.00;;
11933;SDS011;6026;48.784;9.198;2023-02-27T05:29:05;0.00;;;0.00;;
11933;SDS011;6026;48.784;9.198;2023-02-27T05:34:35;0.00;;;0.00;;
11933;SDS011;6026;48.784;9.198;2023-02-27T05:37:08;0.00;;;0.00;;
11933;SDS011;6026;48.784;9.198;2023-02-27T05:39:39;0.00;;;0.00;;
11933;SDS011;6026;48.784;9.198;2023-02-27T05:42:08;0.00;;;0.00;;
11933;SDS011;6026;48.784;9.198;2023-02-27T05:44:45;0.00;;;0.00;;
11933;SDS011;6026;48.784;9.198;2023-02-27T05:47:19;0.00;;;0.00;;
11933;SDS011;6026;48.784;9.198;2023-02-27T05:49:51;0.00;;;0.00;;
11933;SDS011;6026;48.784;9.198;2023-02-27T05:52:21;0.00;;;0.00;;
11933;SDS011;6026;48.784;9.198;2023-02-27T05:54:50;0.00;;;0.00;;
11933;SDS011;6026;48.784;9.198;2023-02-27T05:57:27;0.00;;;0.00;;
11933;SDS011;6026;48.784;9.198;2023-02-27T06:00:12;0.00;;;0.00;;
11933;SDS011;6026;48.784;9.198;2023-02-27T06:02:42;0.00;;;0.00;;
11933;SDS011;6026;48.784;9.198;2023-02-27T06:05:09;0.00;;;0.00;;
11933;SDS011;6026;48.784;9.198;2023-02-27T06:07:37;0.00;;;0.00;;
11933;SDS011;6026;48.784;9.198;2023-02-27T06:10:03;0.00;;;0.00;;
11933;SDS011;6026;48.784;9.198;2023-02-27T06:12:30;0.00;;;0.00;;
11933;SDS011;6026;48.784;9.198;2023-02-27T06:14:55;0.00;;;0.00;;
11933;SDS011;6026;48.784;9.198;2023-02-27T06:17:21;0.00;;;0.00;;
11933;SDS011;6026;48.784;9.198;2023-02-27T06:19:47;0.00;;;0.00;;
11933;SDS011;6026;48.784;9.198;2023-02-27T06:22:12;0.00;;;0.00;;
11933;SDS011;6026;48.784;9.198;2023-02-27T06:24:38;0.00;;;0.00;;
11933;SDS011;6026;48.784;9.198;2023-02-27T06:27:04;0.00;;;0.00;;
11933;SDS011;6026;48.784;9.198;2023-02-27T06:29:29;0.00;;;0.00;;
11933;SDS011;6026;48.784;9.198;2023-02-27T06:31:55;0.00;;;0.00;;
11933;SDS011;6026;48.784;9.198;2023-02-27T06:34:20;0.00;;;0.00;;
11933;SDS011;6026;48.784;9.198;2023-02-27T06:36:46;0.00;;;0.00;;
11933;SDS011;6026;48.784;9.198;2023-02-27T06:39:12;0.00;;;0.00;;
11933;SDS011;6026;48.784;9.198;2023-02-27T06:41:38;0.00;;;0.00;;
11933;SDS011;6026;48.784;9.198;2023-02-27T06:44:04;0.00;;;0.00;;
11933;SDS011;6026;48.784;9.198;2023-02-27T06:46:29;0.00;;;0.00;;
11933;SDS011;6026;48.784;9.198;2023-02-27T06:48:55;0.00;;;0.00;;
11933;SDS011;6026;48.784;9.198;2023-02-27T06:51:20;0.00;;;0.00;;
11933;SDS011;6026;48.784;9.198;2023-02-27T06:53:46;0.00;;;0.00;;
11933;SDS011;6026;48.784;9.198;2023-02-27T06:56:12;0.10;;;0.10;;
11933;SDS011;6026;48.784;9.198;2023-02-27T06:58:37;0.00;;;0.00;;
11933;SDS011;6026;48.784;9.198;2023-02-27T07:01:03;0.00;;;0.00;;
11933;SDS011;6026;48.784;9.198;2023-02-27T07:03:29;0.00;;;0.00;;
11933;SDS011;6026;48.784;9.198;2023-02-27T07:05:55;0.00;;;0.00;;
11933;SDS011;6026;48.784;9.198;2023-02-27T07:08:22;0.00;;;0.00;;
11933;SDS011;6026;48.784;9.198;2023-02-27T07:10:48;0.00;;;0.00;;
11933;SDS011;6026;48.784;9.198;2023-02-27T07:13:14;0.00;;;0.00;;
11933;SDS011;6026;48.784;9.198;2023-02-27T07:15:40;0.00;;;0.00;;
11933;SDS011;6026;48.784;9.198;2023-02-27T07:18:06;0.00;;;0.00;;
11933;SDS011;6026;48.784;9.198;2023-02-27T07:20:31;0.00;;;0.00;;
11933;SDS011;6026;48.784;9.198;2023-02-27T07:22:57;0.00;;;0.00;;
11933;SDS011;6026;48.784;9.198;2023-02-27T07:25:22;0.00;;;0.00;;
11933;SDS011;6026;48.784;9.198;2023-02-27T07:27:48;0.03;;;0.03;;
11933;SDS011;6026;48.784;9.198;2023-02-27T07:30:15;0.00;;;0.00;;
11933;SDS011;6026;48.784;9.198;2023-02-27T07:32:41;0.00;;;0.00;;
11933;SDS011;6026;48.784;9.198;2023-02-27T07:35:08;0.10;;;0.10;;
11933;SDS011;6026;48.784;9.198;2023-02-27T07:37:34;0.10;;;0.10;;
11933;SDS011;6026;48.784;9.198;2023-02-27T07:40:00;0.20;;;0.20;;
11933;SDS011;6026;48.784;9.198;2023-02-27T07:42:25;0.10;;;0.10;;
11933;SDS011;6026;48.784;9.198;2023-02-27T07:44:51;0.00;;;0.00;;
11933;SDS011;6026;48.784;9.198;2023-02-27T07:47:17;0.10;;;0.10;;
11933;SDS011;6026;48.784;9.198;2023-02-27T07:49:42;0.20;;;0.20;;
11933;SDS011;6026;48.784;9.198;2023-02-27T07:52:08;0.00;;;0.00;;
11933;SDS011;6026;48.784;9.198;2023-02-27T07:54:35;0.00;;;0.00;;
11933;SDS011;6026;48.784;9.198;2023-02-27T07:57:01;0.10;;;0.10;;
11933;SDS011;6026;48.784;9.198;2023-02-27T07:59:27;0.03;;;0.03;;
11933;SDS011;6026;48.784;9.198;2023-02-27T08:01:53;0.00;;;0.00;;
11933;SDS011;6026;48.784;9.198;2023-02-27T08:04:19;0.10;;;0.10;;
11933;SDS011;6026;48.784;9.198;2023-02-27T08:06:44;0.10;;;0.10;;
11933;SDS011;6026;48.784;9.198;2023-02-27T08:09:10;0.10;;;0.10;;
11933;SDS011;6026;48.784;9.198;2023-02-27T08:11:35;0.10;;;0.10;;
11933;SDS011;6026;48.784;9.198;2023-02-27T08:14:01;0.00;;;0.00;;
11933;SDS011;6026;48.784;9.198;2023-02-27T08:16:27;0.07;;;0.07;;
11933;SDS011;6026;48.784;9.198;2023-02-27T08:18:53;0.60;;;0.60;;
11933;SDS011;6026;48.784;9.198;2023-02-27T08:21:18;0.10;;;0.10;;
11933;SDS011;6026;48.784;9.198;2023-02-27T08:23:44;1.93;;;0.83;;
11933;SDS011;6026;48.784;9.198;2023-02-27T08:26:09;0.10;;;0.10;;
11933;SDS011;6026;48.784;9.198;2023-02-27T08:28:35;0.10;;;0.10;;
11933;SDS011;6026;48.784;9.198;2023-02-27T08:31:00;0.10;;;0.10;;
11933;SDS011;6026;48.784;9.198;2023-02-27T08:33:26;0.10;;;0.10;;
11933;SDS011;6026;48.784;9.198;2023-02-27T08:35:51;0.10;;;0.10;;
11933;SDS011;6026;48.784;9.198;2023-02-27T08:38:18;0.10;;;0.10;;
11933;SDS011;6026;48.784;9.198;2023-02-27T08:40:44;0.10;;;0.10;;
11933;SDS011;6026;48.784;9.198;2023-02-27T08:43:09;0.20;;;0.20;;
11933;SDS011;6026;48.784;9.198;2023-02-27T08:45:35;0.10;;;0.10;;
11933;SDS011;6026;48.784;9.198;2023-02-27T08:48:00;0.20;;;0.20;;
11933;SDS011;6026;48.784;9.198;2023-02-27T08:50:26;0.10;;;0.10;;
11933;SDS011;6026;48.784;9.198;2023-02-27T08:52:52;0.30;;;0.30;;
11933;SDS011;6026;48.784;9.198;2023-02-27T08:55:17;0.50;;;0.50;;
11933;SDS011;6026;48.784;9.198;2023-02-27T08:57:43;0.20;;;0.20;;
11933;SDS011;6026;48.784;9.198;2023-02-27T09:00:08;0.30;;;0.30;;
11933;SDS011;6026;48.784;9.198;2023-02-27T09:02:38;0.20;;;0.20;;
11933;SDS011;6026;48.784;9.198;2023-02-27T09:05:04;0.13;;;0.13;;
11933;SDS011;6026;48.784;9.198;2023-02-27T09:07:30;0.40;;;0.40;;
11933;SDS011;6026;48.784;9.198;2023-02-27T09:09:58;0.97;;;0.33;;
11933;SDS011;6026;48.784;9.198;2023-02-27T09:12:24;0.20;;;0.20;;
11933;SDS011;6026;48.784;9.198;2023-02-27T09:14:49;0.13;;;0.13;;
11933;SDS011;6026;48.784;9.198;2023-02-27T09:17:15;0.13;;;0.13;;
11933;SDS011;6026;48.784;9.198;2023-02-27T09:19:40;0.20;;;0.20;;
11933;SDS011;6026;48.784;9.198;2023-02-27T09:22:06;0.40;;;0.40;;
11933;SDS011;6026;48.784;9.198;2023-02-27T09:24:31;0.40;;;0.40;;
11933;SDS011;6026;48.784;9.198;2023-02-27T09:26:57;0.30;;;0.30;;
11933;SDS011;6026;48.784;9.198;2023-02-27T09:29:22;0.50;;;0.50;;
11933;SDS011;6026;48.784;9.198;2023-02-27T09:31:49;0.30;;;0.30;;
11933;SDS011;6026;48.784;9.198;2023-02-27T09:34:15;0.40;;;0.40;;
11933;SDS011;6026;48.784;9.198;2023-02-27T09:36:41;0.30;;;0.30;;
11933;SDS011;6026;48.784;9.198;2023-02-27T09:39:06;0.40;;;0.40;;
11933;SDS011;6026;48.784;9.198;2023-02-27T09:44:20;0.83;;;0.83;;
11933;SDS011;6026;48.784;9.198;2023-02-27T09:46:50;0.30;;;0.30;;
11933;SDS011;6026;48.784;9.198;2023-02-27T09:49:18;0.20;;;0.20;;
11933;SDS011;6026;48.784;9.198;2023-02-27T09:51:46;0.30;;;0.30;;
11933;SDS011;6026;48.784;9.198;2023-02-27T09:54:14;0.50;;;0.50;;
11933;SDS011;6026;48.784;9.198;2023-02-27T09:56:47;0.27;;;0.27;;
11933;SDS011;6026;48.784;9.198;2023-02-27T09:59:28;0.20;;;0.20;;
11933;SDS011;6026;48.784;9.198;2023-02-27T10:07:27;0.43;;;0.43;;
11933;SDS011;6026;48.784;9.198;2023-02-27T10:15:50;1.23;;;1.17;;
11933;SDS011;6026;48.784;9.198;2023-02-27T10:18:21;0.60;;;0.60;;
11933;SDS011;6026;48.784;9.198;2023-02-27T10:20:55;0.43;;;0.43;;
11933;SDS011;6026;48.784;9.198;2023-02-27T10:23:32;0.60;;;0.60;;
11933;SDS011;6026;48.784;9.198;2023-02-27T10:26:24;0.40;;;0.40;;
11933;SDS011;6026;48.784;9.198;2023-02-27T10:28:53;0.40;;;0.40;;
11933;SDS011;6026;48.784;9.198;2023-02-27T10:31:22;0.50;;;0.50;;
11933;SDS011;6026;48.784;9.198;2023-02-27T10:33:50;0.50;;;0.50;;
11933;SDS011;6026;48.784;9.198;2023-02-27T10:36:17;0.60;;;0.60;;
11933;SDS011;6026;48.784;9.198;2023-02-27T10:38:45;0.40;;;0.40;;
11933;SDS011;6026;48.784;9.198;2023-02-27T10:41:18;0.40;;;0.40;;
11933;SDS011;6026;48.784;9.198;2023-02-27T10:43:45;7.63;;;1.13;;
11933;SDS011;6026;48.784;9.198;2023-02-27T10:46:16;0.60;;;0.60;;
11933;SDS011;6026;48.784;9.198;2023-02-27T10:48:51;0.73;;;0.73;;
11933;SDS011;6026;48.784;9.198;2023-02-27T10:51:21;0.60;;;0.60;;
11933;SDS011;6026;48.784;9.198;2023-02-27T10:53:50;1.17;;;1.17;;
11933;SDS011;6026;48.784;9.198;2023-02-27T10:56:22;0.53;;;0.53;;
11933;SDS011;6026;48.784;9.198;2023-02-27T10:59:03;0.70;;;0.70;;
11933;SDS011;6026;48.784;9.198;2023-02-27T11:01:41;1.93;;;1.93;;
11933;SDS011;6026;48.784;9.198;2023-02-27T11:04:09;0.43;;;0.43;;
11933;SDS011;6026;48.784;9.198;2023-02-27T11:06:36;0.50;;;0.50;;
11933;SDS011;6026;48.784;9.198;2023-02-27T11:09:16;1.00;;;1.00;;
11933;SDS011;6026;48.784;9.198;2023-02-27T11:11:47;0.50;;;0.50;;
11933;SDS011;6026;48.784;9.198;2023-02-27T11:14:16;0.70;;;0.70;;
11933;SDS011;6026;48.784;9.198;2023-02-27T11:16:51;0.60;;;0.60;;
11933;SDS011;6026;48.784;9.198;2023-02-27T11:19:23;0.90;;;0.90;;
11933;SDS011;6026;48.784;9.198;2023-02-27T11:24:40;0.70;;;0.70;;
11933;SDS011;6026;48.784;9.198;2023-02-27T11:30:05;0.57;;;0.57;;
11933;SDS011;6026;48.784;9.198;2023-02-27T11:32:46;0.60;;;0.60;;
11933;SDS011;6026;48.784;9.198;2023-02-27T11:35:29;0.80;;;0.80;;
11933;SDS011;6026;48.784;9.198;2023-02-27T11:38:03;0.50;;;0.50;;
11933;SDS011;6026;48.784;9.198;2023-02-27T11:40:52;0.70;;;0.70;;
11933;SDS011;6026;48.784;9.198;2023-02-27T11:45:59;0.80;;;0.80;;
11933;SDS011;6026;48.784;9.198;2023-02-27T11:48:34;0.83;;;0.83;;
11933;SDS011;6026;48.784;9.198;2023-02-27T11:51:04;0.60;;;0.60;;
11933;SDS011;6026;48.784;9.198;2023-02-27T11:56:14;0.50;;;0.50;;
11933;SDS011;6026;48.784;9.198;2023-02-27T11:58:50;0.60;;;0.60;;
11933;SDS011;6026;48.784;9.198;2023-02-27T12:01:44;0.50;;;0.50;;
11933;SDS011;6026;48.784;9.198;2023-02-27T12:04:28;0.77;;;0.77;;
11933;SDS011;6026;48.784;9.198;2023-02-27T12:07:02;0.70;;;0.70;;
11933;SDS011;6026;48.784;9.198;2023-02-27T12:09:42;0.73;;;0.53;;
11933;SDS011;6026;48.784;9.198;2023-02-27T12:12:23;0.40;;;0.40;;
11933;SDS011;6026;48.784;9.198;2023-02-27T12:23:07;0.20;;;0.20;;
11933;SDS011;6026;48.784;9.198;2023-02-27T12:26:02;0.30;;;0.30;;
11933;SDS011;6026;48.784;9.198;2023-02-27T12:28:53;0.63;;;0.63;;
11933;SDS011;6026;48.784;9.198;2023-02-27T12:36:45;0.20;;;0.20;;
11933;SDS011;6026;48.784;9.198;2023-02-27T12:39:22;0.30;;;0.30;;
11933;SDS011;6026;48.784;9.198;2023-02-27T12:50:23;0.10;;;0.10;;
11933;SDS011;6026;48.784;9.198;2023-02-27T12:52:55;0.40;;;0.40;;
11933;SDS011;6026;48.784;9.198;2023-02-27T12:55:24;0.57;;;0.57;;
11933;SDS011;6026;48.784;9.198;2023-02-27T12:58:01;0.30;;;0.30;;
11933;SDS011;6026;48.784;9.198;2023-02-27T13:00:55;0.50;;;0.50;;
11933;SDS011;6026;48.784;9.198;2023-02-27T13:03:35;0.40;;;0.40;;
11933;SDS011;6026;48.784;9.198;2023-02-27T13:06:13;0.40;;;0.40;;
11933;SDS011;6026;48.784;9.198;2023-02-27T13:14:00;0.30;;;0.30;;
11933;SDS011;6026;48.784;9.198;2023-02-27T13:16:36;0.20;;;0.20;;
11933;SDS011;6026;48.784;9.198;2023-02-27T13:21:44;0.30;;;0.30;;
11933;SDS011;6026;48.784;9.198;2023-02-27T13:24:35;0.33;;;0.33;;
11933;SDS011;6026;48.784;9.198;2023-02-27T13:27:05;0.50;;;0.50;;
11933;SDS011;6026;48.784;9.198;2023-02-27T13:29:47;0.40;;;0.40;;
11933;SDS011;6026;48.784;9.198;2023-02-27T13:32:23;0.50;;;0.50;;
11933;SDS011;6026;48.784;9.198;2023-02-27T13:35:24;0.20;;;0.20;;
11933;SDS011;6026;48.784;9.198;2023-02-27T13:37:57;0.50;;;0.50;;
11933;SDS011;6026;48.784;9.198;2023-02-27T13:40:30;0.20;;;0.20;;
11933;SDS011;6026;48.784;9.198;2023-02-27T13:43:03;0.33;;;0.33;;
11933;SDS011;6026;48.784;9.198;2023-02-27T13:45:56;0.60;;;0.60;;
11933;SDS011;6026;48.784;9.198;2023-02-27T13:50:57;0.30;;;0.30;;
11933;SDS011;6026;48.784;9.198;2023-02-27T13:53:23;0.30;;;0.30;;
11933;SDS011;6026;48.784;9.198;2023-02-27T13:55:55;0.30;;;0.30;;
11933;SDS011;6026;48.784;9.198;2023-02-27T13:58:43;0.40;;;0.40;;
11933;SDS011;6026;48.784;9.198;2023-02-27T14:01:13;0.40;;;0.40;;
11933;SDS011;6026;48.784;9.198;2023-02-27T14:03:54;0.40;;;0.40;;
11933;SDS011;6026;48.784;9.198;2023-02-27T14:06:26;0.97;;;0.87;;
11933;SDS011;6026;48.784;9.198;2023-02-27T14:08:53;0.20;;;0.20;;
11933;SDS011;6026;48.784;9.198;2023-02-27T14:11:29;0.40;;;0.40;;
11933;SDS011;6026;48.784;9.198;2023-02-27T14:14:05;0.40;;;0.40;;
11933;SDS011;6026;48.784;9.198;2023-02-27T14:27:05;0.10;;;0.10;;
11933;SDS011;6026;48.784;9.198;2023-02-27T14:29:56;0.20;;;0.20;;
11933;SDS011;6026;48.784;9.198;2023-02-27T14:32:28;0.30;;;0.30;;
11933;SDS011;6026;48.784;9.198;2023-02-27T14:34:59;0.20;;;0.20;;
11933;SDS011;6026;48.784;9.198;2023-02-27T14:37:26;0.20;;;0.20;;
11933;SDS011;6026;48.784;9.198;2023-02-27T14:39:53;0.20;;;0.20;;
11933;SDS011;6026;48.784;9.198;2023-02-27T14:44:48;0.20;;;0.20;;
11933;SDS011;6026;48.784;9.198;2023-02-27T14:49:44;0.10;;;0.10;;
11933;SDS011;6026;48.784;9.198;2023-02-27T14:52:19;0.10;;;0.10;;
11933;SDS011;6026;48.784;9.198;2023-02-27T14:54:46;0.10;;;0.10;;
11933;SDS011;6026;48.784;9.198;2023-02-27T14:57:23;0.20;;;0.20;;
11933;SDS011;6026;48.784;9.198;2023-02-27T14:59:50;0.20;;;0.20;;
11933;SDS011;6026;48.784;9.198;2023-02-27T15:02:22;0.10;;;0.10;;
11933;SDS011;6026;48.784;9.198;2023-02-27T15:07:31;0.13;;;0.13;;
11933;SDS011;6026;48.784;9.198;2023-02-27T15:09:59;0.20;;;0.20;;
11933;SDS011;6026;48.784;9.198;2023-02-27T15:12:29;0.20;;;0.20;;
11933;SDS011;6026;48.784;9.198;2023-02-27T15:14:59;0.10;;;0.10;;
11933;SDS011;6026;48.784;9.198;2023-02-27T15:17:35;0.20;;;0.20;;
11933;SDS011;6026;48.784;9.198;2023-02-27T15:23:22;0.20;;;0.20;;
11933;SDS011;6026;48.784;9.198;2023-02-27T15:25:53;0.10;;;0.10;;
11933;SDS011;6026;48.784;9.198;2023-02-27T15:28:24;0.10;;;0.10;;
11933;SDS011;6026;48.784;9.198;2023-02-27T15:30:54;0.10;;;0.10;;
11933;SDS011;6026;48.784;9.198;2023-02-27T15:33:27;0.20;;;0.20;;
11933;SDS011;6026;48.784;9.198;2023-02-27T15:35:56;0.10;;;0.10;;
11933;SDS011;6026;48.784;9.198;2023-02-27T15:38:24;0.20;;;0.20;;
11933;SDS011;6026;48.784;9.198;2023-02-27T15:40:52;0.20;;;0.20;;
11933;SDS011;6026;48.784;9.198;2023-02-27T15:43:19;0.10;;;0.10;;
11933;SDS011;6026;48.784;9.198;2023-02-27T15:45:46;0.10;;;0.10;;
11933;SDS011;6026;48.784;9.198;2023-02-27T15:48:13;0.10;;;0.10;;
11933;SDS011;6026;48.784;9.198;2023-02-27T15:50:41;0.10;;;0.10;;
11933;SDS011;6026;48.784;9.198;2023-02-27T15:53:10;0.10;;;0.10;;
11933;SDS011;6026;48.784;9.198;2023-02-27T15:55:39;0.10;;;0.10;;
11933;SDS011;6026;48.784;9.198;2023-02-27T15:58:12;0.10;;;0.10;;
11933;SDS011;6026;48.784;9.198;2023-02-27T16:00:47;0.20;;;0.20;;
11933;SDS011;6026;48.784;9.198;2023-02-27T16:03:16;0.10;;;0.10;;
11933;SDS011;6026;48.784;9.198;2023-02-27T16:05:48;0.10;;;0.10;;
11933;SDS011;6026;48.784;9.198;2023-02-27T16:08:17;0.17;;;0.17;;
11933;SDS011;6026;48.784;9.198;2023-02-27T16:10:43;0.20;;;0.20;;
11933;SDS011;6026;48.784;9.198;2023-02-27T16:16:34;0.10;;;0.10;;
11933;SDS011;6026;48.784;9.198;2023-02-27T16:19:46;0.10;;;0.10;;
11933;SDS011;6026;48.784;9.198;2023-02-27T16:22:05;0.10;;;0.10;;
11933;SDS011;6026;48.784;9.198;2023-02-27T16:24:41;0.10;;;0.10;;
11933;SDS011;6026;48.784;9.198;2023-02-27T16:27:18;0.10;;;0.10;;
11933;SDS011;6026;48.784;9.198;2023-02-27T16:29:52;0.10;;;0.10;;
11933;SDS011;6026;48.784;9.198;2023-02-27T16:32:23;0.10;;;0.10;;
11933;SDS011;6026;48.784;9.198;2023-02-27T16:34:58;0.10;;;0.10;;
11933;SDS011;6026;48.784;9.198;2023-02-27T16:39:57;0.10;;;0.10;;
11933;SDS011;6026;48.784;9.198;2023-02-27T16:42:23;0.10;;;0.10;;
11933;SDS011;6026;48.784;9.198;2023-02-27T16:44:48;0.10;;;0.10;;
11933;SDS011;6026;48.784;9.198;2023-02-27T16:47:14;0.10;;;0.10;;
11933;SDS011;6026;48.784;9.198;2023-02-27T16:49:39;0.70;;;0.70;;
11933;SDS011;6026;48.784;9.198;2023-02-27T16:52:06;0.03;;;0.03;;
11933;SDS011;6026;48.784;9.198;2023-02-27T16:54:35;0.10;;;0.10;;
11933;SDS011;6026;48.784;9.198;2023-02-27T16:57:01;0.00;;;0.00;;
11933;SDS011;6026;48.784;9.198;2023-02-27T16:59:28;0.00;;;0.00;;
11933;SDS011;6026;48.784;9.198;2023-02-27T17:01:55;0.10;;;0.10;;
11933;SDS011;6026;48.784;9.198;2023-02-27T17:04:21;0.50;;;0.50;;
11933;SDS011;6026;48.784;9.198;2023-02-27T17:06:48;0.10;;;0.10;;
11933;SDS011;6026;48.784;9.198;2023-02-27T17:09:14;0.10;;;0.10;;
11933;SDS011;6026;48.784;9.198;2023-02-27T17:11:39;0.10;;;0.10;;
11933;SDS011;6026;48.784;9.198;2023-02-27T17:14:05;0.10;;;0.10;;
11933;SDS011;6026;48.784;9.198;2023-02-27T17:16:30;0.20;;;0.20;;
11933;SDS011;6026;48.784;9.198;2023-02-27T17:18:56;0.10;;;0.10;;
11933;SDS011;6026;48.784;9.198;2023-02-27T17:21:21;0.20;;;0.20;;
11933;SDS011;6026;48.784;9.198;2023-02-27T17:23:47;0.10;;;0.10;;
11933;SDS011;6026;48.784;9.198;2023-02-27T17:26:12;0.40;;;0.40;;
11933;SDS011;6026;48.784;9.198;2023-02-27T17:28:38;0.10;;;0.10;;
11933;SDS011;6026;48.784;9.198;2023-02-27T17:31:11;0.20;;;0.20;;
11933;SDS011;6026;48.784;9.198;2023-02-27T17:33:39;0.10;;;0.10;;
11933;SDS011;6026;48.784;9.198;2023-02-27T17:36:06;0.10;;;0.10;;
11933;SDS011;6026;48.784;9.198;2023-02-27T17:38:33;0.10;;;0.10;;
11933;SDS011;6026;48.784;9.198;2023-02-27T17:41:04;0.30;;;0.20;;
11933;SDS011;6026;48.784;9.198;2023-02-27T17:43:31;0.10;;;0.10;;
11933;SDS011;6026;48.784;9.198;2023-02-27T17:45:57;0.10;;;0.10;;
11933;SDS011;6026;48.784;9.198;2023-02-27T17:48:22;0.10;;;0.10;;
11933;SDS011;6026;48.784;9.198;2023-02-27T17:50:48;0.10;;;0.10;;